Time;durP1;ratioP1;P1;durP2;ratioP2;P2;SDS_P1;SDS_P2;PMS_P1;PMS_P2;Temp;Humidity;BMP_temperature;BMP_pressure;BME280_temperature;BME280_humidity;BME280_pressure;Samples;Min_cycle;Max_cycle;Signal;HPM_P1;HPM_P2
2023/08/02 00:01:44;;;;;;;0.00;0.00;;;;;;;16.99;100.00;100002.78;5050267;28;20064;-45
2023/08/02 00:04:10;;;;;;;0.00;0.00;;;;;;;16.98;100.00;99989.44;5049224;28;20107;-47
2023/08/02 00:06:35;;;;;;;0.00;0.00;;;;;;;16.86;100.00;99982.19;5050745;28;20033;-48
2023/08/02 00:09:01;;;;;;;0.00;0.00;;;;;;;16.80;100.00;99985.88;5050341;28;20050;-45
2023/08/02 00:11:26;;;;;;;0.00;0.00;;;;;;;16.77;100.00;99986.38;5049805;28;20040;-45
2023/08/02 00:13:51;;;;;;;0.00;0.00;;;;;;;16.73;100.00;99996.03;5051158;28;20032;-44
2023/08/02 00:16:17;;;;;;;0.00;0.00;;;;;;;16.70;100.00;99996.53;5051174;28;20048;-48
2023/08/02 00:18:42;;;;;;;0.00;0.00;;;;;;;16.59;100.00;99994.69;5050810;28;20523;-44
2023/08/02 00:21:07;;;;;;;0.00;0.00;;;;;;;16.63;100.00;99993.13;5041137;28;20483;-47
2023/08/02 00:23:33;;;;;;;0.00;0.00;;;;;;;16.61;100.00;99995.25;5030006;28;22117;-46
2023/08/02 00:25:58;;;;;;;0.00;0.00;;;;;;;16.62;100.00;100000.44;5029279;28;20025;-47
2023/08/02 00:28:23;;;;;;;0.00;0.00;;;;;;;16.61;100.00;100003.41;5030171;28;20086;-48
2023/08/02 00:30:49;;;;;;;0.00;0.00;;;;;;;16.58;100.00;99987.59;5030383;28;20057;-46
2023/08/02 00:33:14;;;;;;;0.00;0.00;;;;;;;16.64;100.00;99975.75;5030389;28;20083;-48
2023/08/02 00:35:46;;;;;;;0.00;0.00;;;;;;;16.67;100.00;99988.88;5030779;28;20025;-49
2023/08/02 00:38:13;;;;;;;0.00;0.00;;;;;;;16.65;100.00;99982.84;5038624;28;20056;-48
2023/08/02 00:40:38;;;;;;;0.00;0.00;;;;;;;16.65;100.00;99972.78;5045714;28;20017;-45
2023/08/02 00:43:04;;;;;;;0.00;0.00;;;;;;;16.77;100.00;99977.34;5030468;28;20017;-46
2023/08/02 00:45:29;;;;;;;0.00;0.00;;;;;;;16.78;100.00;99984.47;5028678;28;20237;-46
2023/08/02 00:47:57;;;;;;;0.00;0.00;;;;;;;16.80;100.00;99971.47;5030705;28;20025;-49
2023/08/02 00:50:22;;;;;;;0.00;0.00;;;;;;;16.73;100.00;99971.59;5030548;28;20025;-46
2023/08/02 00:52:48;;;;;;;0.00;0.00;;;;;;;16.76;100.00;99975.69;5029070;28;20091;-49
2023/08/02 00:55:14;;;;;;;0.00;0.00;;;;;;;16.71;100.00;99975.59;5038423;28;20060;-45
2023/08/02 00:57:39;;;;;;;0.00;0.00;;;;;;;16.74;100.00;99965.06;5030111;28;20045;-46
2023/08/02 01:00:05;;;;;;;0.00;0.00;;;;;;;16.68;100.00;99960.63;5029035;28;20028;-48
2023/08/02 01:02:31;;;;;;;0.00;0.00;;;;;;;16.76;100.00;99957.50;5030127;28;20395;-50
2023/08/02 01:04:57;;;;;;;0.00;0.00;;;;;;;16.77;100.00;99958.31;5029645;28;20032;-47
2023/08/02 01:07:29;;;;;;;0.00;0.00;;;;;;;16.78;100.00;99951.88;5049386;28;20044;-46
2023/08/02 01:10:04;;;;;;;0.00;0.00;;;;;;;16.80;100.00;99944.31;5050176;28;20039;-45
2023/08/02 01:12:30;;;;;;;0.00;0.00;;;;;;;16.74;100.00;99932.47;5049561;28;20033;-47
2023/08/02 01:14:58;;;;;;;0.00;0.00;;;;;;;16.71;100.00;99932.94;5048529;28;20032;-49
2023/08/02 01:17:26;;;;;;;;;;;;;;;16.71;100.00;99938.38;5048921;28;20429;-46
2023/08/02 01:19:52;;;;;;;0.00;0.00;;;;;;;16.68;100.00;99939.69;5048718;28;19913;-46
2023/08/02 01:22:17;;;;;;;0.00;0.00;;;;;;;16.63;100.00;99930.63;5050022;28;20091;-48
2023/08/02 01:24:42;;;;;;;0.00;0.00;;;;;;;16.53;100.00;99938.59;5053444;28;20029;-47
2023/08/02 01:27:11;;;;;;;0.00;0.00;;;;;;;16.60;100.00;99933.84;5053487;28;20025;-46
2023/08/02 01:29:37;;;;;;;0.00;0.00;;;;;;;16.55;100.00;99920.16;5033898;28;20021;-44
2023/08/02 01:32:03;;;;;;;0.00;0.00;;;;;;;16.52;100.00;99923.38;5042328;28;20037;-45
2023/08/02 01:34:30;;;;;;;0.00;0.00;;;;;;;16.55;100.00;99925.59;5039260;28;20108;-46
2023/08/02 01:36:55;;;;;;;0.00;0.00;;;;;;;16.49;100.00;99907.56;5032429;28;20033;-46
2023/08/02 01:39:20;;;;;;;0.00;0.00;;;;;;;16.52;100.00;99909.78;5033139;28;20030;-44
2023/08/02 01:41:46;;;;;;;0.00;0.00;;;;;;;16.45;100.00;99908.03;5034437;28;20060;-46
2023/08/02 01:44:11;;;;;;;0.00;0.00;;;;;;;16.43;100.00;99903.94;5034449;28;20084;-44
2023/08/02 01:46:37;;;;;;;0.00;0.00;;;;;;;16.49;100.00;99888.56;5034196;28;20109;-44
2023/08/02 01:49:02;;;;;;;0.00;0.00;;;;;;;16.44;100.00;99881.13;5049428;28;20040;-44
2023/08/02 01:51:27;;;;;;;0.00;0.00;;;;;;;16.34;100.00;99878.22;5055169;28;20104;-46
2023/08/02 01:53:53;;;;;;;0.00;0.00;;;;;;;16.39;100.00;99867.47;5053712;28;20025;-46
2023/08/02 01:56:18;;;;;;;0.00;0.00;;;;;;;16.38;100.00;99868.53;5053075;28;20525;-44
2023/08/02 01:58:43;;;;;;;0.00;0.00;;;;;;;16.32;100.00;99864.06;5040578;28;20049;-47
2023/08/02 02:01:09;;;;;;;0.00;0.00;;;;;;;16.26;100.00;99846.88;5033492;28;20026;-46
2023/08/02 02:03:34;;;;;;;0.00;0.00;;;;;;;16.23;100.00;99842.75;5032545;28;20038;-44
2023/08/02 02:05:59;;;;;;;0.00;0.00;;;;;;;16.22;100.00;99837.59;5032753;28;20506;-45
2023/08/02 02:08:25;;;;;;;0.00;0.00;;;;;;;16.32;100.00;99831.50;5040420;28;20025;-44
2023/08/02 02:10:54;;;;;;;0.00;0.00;;;;;;;16.28;100.00;99825.72;5052683;28;20065;-47
2023/08/02 02:13:24;;;;;;;0.00;0.00;;;;;;;16.31;100.00;99819.81;5052658;28;20120;-45
2023/08/02 02:15:49;;;;;;;0.00;0.00;;;;;;;16.35;100.00;99809.28;5052119;28;20299;-45
2023/08/02 02:18:15;;;;;;;0.00;0.00;;;;;;;16.34;100.00;99802.19;5052445;28;20192;-47
2023/08/02 02:20:40;;;;;;;0.00;0.00;;;;;;;16.36;100.00;99797.34;5051247;28;20025;-46
2023/08/02 02:23:06;;;;;;;0.00;0.00;;;;;;;16.21;100.00;99793.28;5052688;28;20028;-45
2023/08/02 02:25:31;;;;;;;0.00;0.00;;;;;;;16.19;100.00;99783.75;5052911;28;20112;-45
2023/08/02 02:27:57;;;;;;;0.00;0.00;;;;;;;16.16;100.00;99785.06;5047718;28;20032;-43
2023/08/02 02:30:22;;;;;;;0.00;0.00;;;;;;;16.19;100.00;99783.75;5032536;28;20037;-50
2023/08/02 02:32:47;;;;;;;0.00;0.00;;;;;;;16.13;100.00;99782.84;5032226;28;20029;-47
2023/08/02 02:35:13;;;;;;;0.00;0.00;;;;;;;16.16;100.00;99778.81;5031487;28;20072;-44
2023/08/02 02:37:39;;;;;;;0.00;0.00;;;;;;;16.19;100.00;99783.75;5032709;28;20033;-49
2023/08/02 02:40:05;;;;;;;0.00;0.00;;;;;;;16.20;100.00;99788.13;5032536;28;20022;-43
2023/08/02 02:42:31;;;;;;;0.00;0.00;;;;;;;16.20;100.00;99786.22;5032518;28;20030;-43
2023/08/02 02:44:56;;;;;;;0.00;0.00;;;;;;;16.19;100.00;99790.03;5032611;28;20049;-44
2023/08/02 02:47:21;;;;;;;0.00;0.00;;;;;;;16.18;100.00;99780.22;5030869;28;20171;-45
2023/08/02 02:49:47;;;;;;;0.00;0.00;;;;;;;16.18;100.00;99790.25;5033482;28;20021;-46
2023/08/02 02:52:12;;;;;;;0.00;0.00;;;;;;;16.13;100.00;99774.69;5031914;28;20498;-44
2023/08/02 02:54:38;;;;;;;0.00;0.00;;;;;;;16.19;100.00;99772.88;5032200;28;20114;-43
2023/08/02 02:57:03;;;;;;;0.00;0.00;;;;;;;16.21;100.00;99757.19;5032521;28;20057;-46
2023/08/02 02:59:29;;;;;;;0.00;0.00;;;;;;;16.21;100.00;99749.84;5032474;28;20041;-43
2023/08/02 03:01:54;;;;;;;0.00;0.00;;;;;;;16.24;100.00;99733.09;5032241;28;20364;-46
2023/08/02 03:04:19;;;;;;;0.00;0.00;;;;;;;16.32;100.00;99722.88;5032161;28;20028;-45
2023/08/02 03:06:45;;;;;;;0.00;0.00;;;;;;;16.27;100.00;99710.03;5032002;28;20037;-45
2023/08/02 03:09:10;;;;;;;0.00;0.00;;;;;;;16.16;100.00;99702.81;5032193;28;20029;-46
2023/08/02 03:11:35;;;;;;;0.00;0.00;;;;;;;16.19;100.00;99702.31;5032030;28;20152;-43
2023/08/02 03:14:01;;;;;;;0.00;0.00;;;;;;;16.09;100.00;99696.72;5032335;28;20444;-46
2023/08/02 03:16:26;;;;;;;0.00;0.00;;;;;;;16.10;100.00;99701.09;5032762;28;20392;-47
2023/08/02 03:18:54;;;;;;;0.00;0.00;;;;;;;16.07;100.00;99696.97;5031897;28;20496;-47
2023/08/02 03:21:20;;;;;;;0.00;0.00;;;;;;;16.10;100.00;99701.09;5031965;28;20029;-45
2023/08/02 03:23:45;;;;;;;0.00;0.00;;;;;;;16.10;100.00;99698.38;5031518;28;20056;-45
2023/08/02 03:26:11;;;;;;;0.00;0.00;;;;;;;16.17;100.00;99677.31;5031950;28;20053;-46
2023/08/02 03:28:36;;;;;;;0.00;0.00;;;;;;;16.17;100.00;99664.56;5031742;28;20111;-45
2023/08/02 03:31:01;;;;;;;0.00;0.00;;;;;;;16.11;100.00;99683.72;5031443;28;20036;-47
2023/08/02 03:33:27;;;;;;;0.00;0.00;;;;;;;16.07;100.00;99682.59;5030154;28;20392;-45
2023/08/02 03:35:52;;;;;;;0.00;0.00;;;;;;;16.09;100.00;99669.56;5031992;28;20036;-44
2023/08/02 03:38:17;;;;;;;0.00;0.00;;;;;;;16.05;100.00;99669.25;5031313;28;20326;-47
2023/08/02 03:40:43;;;;;;;0.00;0.00;;;;;;;16.01;100.00;99666.22;5029893;28;20125;-45
2023/08/02 03:43:09;;;;;;;0.00;0.00;;;;;;;16.05;100.00;99654.88;5029867;28;20610;-47
2023/08/02 03:45:34;;;;;;;0.00;0.00;;;;;;;15.98;100.00;99652.28;5031481;28;20109;-47
2023/08/02 03:48:00;;;;;;;0.00;0.00;;;;;;;16.07;100.00;99650.84;5030963;28;20384;-47
2023/08/02 03:50:26;;;;;;;0.00;0.00;;;;;;;16.11;100.00;99645.72;5031024;28;20031;-46
2023/08/02 03:52:52;;;;;;;0.00;0.00;;;;;;;16.08;100.00;99640.78;5031112;28;20072;-46
2023/08/02 03:55:17;;;;;;;0.00;0.00;;;;;;;15.99;100.00;99641.22;5029626;28;20026;-50
2023/08/02 03:57:43;;;;;;;0.00;0.00;;;;;;;16.10;100.00;99620.47;5031282;28;20192;-47
2023/08/02 04:00:09;;;;;;;0.00;0.00;;;;;;;16.05;100.00;99619.59;5030895;28;20032;-43
2023/08/02 04:02:34;;;;;;;0.00;0.00;;;;;;;15.89;100.00;99621.22;5050130;28;20104;-48
2023/08/02 04:05:00;;;;;;;0.00;0.00;;;;;;;15.78;100.00;99620.25;5050725;28;20047;-50
2023/08/02 04:07:25;;;;;;;0.00;0.00;;;;;;;15.83;100.00;99616.81;5051307;28;20066;-50
2023/08/02 04:09:51;;;;;;;0.00;0.00;;;;;;;15.76;100.00;99606.09;5050643;28;20012;-45
2023/08/02 04:12:17;;;;;;;0.00;0.00;;;;;;;15.80;100.00;99610.78;5050790;28;20025;-47
2023/08/02 04:14:43;;;;;;;0.00;0.00;;;;;;;15.88;100.00;99598.72;5050496;28;20473;-45
2023/08/02 04:17:09;;;;;;;0.00;0.00;;;;;;;15.88;100.00;99590.56;5050701;28;20025;-45
2023/08/02 04:19:34;;;;;;;0.00;0.00;;;;;;;15.80;100.00;99594.50;5050395;28;20044;-46
2023/08/02 04:21:59;;;;;;;0.00;0.00;;;;;;;15.69;100.00;99590.00;5050872;28;20029;-45
2023/08/02 04:24:25;;;;;;;0.00;0.00;;;;;;;15.67;100.00;99580.44;5050743;28;20032;-45
2023/08/02 04:26:50;;;;;;;0.00;0.00;;;;;;;15.53;100.00;99574.50;5051281;28;20558;-46
2023/08/02 04:29:15;;;;;;;0.00;0.00;;;;;;;15.40;100.00;99572.91;5034762;28;20032;-47
2023/08/02 04:31:41;;;;;;;0.00;0.00;;;;;;;15.35;100.00;99578.28;5030530;28;20498;-46
2023/08/02 04:34:06;;;;;;;0.00;0.00;;;;;;;15.37;100.00;99586.97;5030645;28;20022;-45
2023/08/02 04:36:31;;;;;;;0.00;0.00;;;;;;;15.32;100.00;99576.88;5031033;28;20038;-43
2023/08/02 04:38:57;;;;;;;0.00;0.00;;;;;;;15.34;100.00;99565.75;5031576;28;20447;-45
2023/08/02 04:41:22;;;;;;;0.00;0.00;;;;;;;15.33;100.00;99553.28;5036792;28;20501;-45
2023/08/02 04:43:48;;;;;;;0.00;0.00;;;;;;;15.32;100.00;99552.47;5029373;28;20026;-46
2023/08/02 04:46:13;;;;;;;0.00;0.00;;;;;;;15.36;100.00;99539.25;5036615;28;20036;-48
2023/08/02 04:48:38;;;;;;;0.00;0.00;;;;;;;15.34;100.00;99534.06;5048417;28;20090;-47
2023/08/02 04:51:10;;;;;;;0.00;0.00;;;;;;;15.27;100.00;99537.97;5047819;28;20025;-44
2023/08/02 04:53:35;;;;;;;0.00;0.00;;;;;;;15.23;100.00;99526.81;5048627;28;20021;-43
2023/08/02 04:56:01;;;;;;;0.00;0.00;;;;;;;15.28;100.00;99518.78;5048219;28;20025;-45
2023/08/02 04:58:26;;;;;;;0.00;0.00;;;;;;;15.35;100.00;99515.91;5047484;28;20124;-45
2023/08/02 05:00:52;;;;;;;0.00;0.00;;;;;;;15.39;100.00;99502.69;5039188;28;20032;-46
2023/08/02 05:03:17;;;;;;;0.00;0.00;;;;;;;15.45;100.00;99494.38;5032638;28;20033;-47
2023/08/02 05:05:42;;;;;;;0.00;0.00;;;;;;;15.42;100.00;99481.31;5032439;28;20044;-49
2023/08/02 05:08:08;;;;;;;0.00;0.00;;;;;;;15.41;100.00;99474.25;5043246;28;20029;-48
2023/08/02 05:10:33;;;;;;;0.00;0.00;;;;;;;15.34;100.00;99465.47;5051740;28;20549;-49
2023/08/02 05:12:59;;;;;;;0.00;0.00;;;;;;;15.37;100.00;99473.09;5050692;28;20033;-47
2023/08/02 05:15:24;;;;;;;0.00;0.00;;;;;;;15.35;100.00;99467.13;5051912;28;20029;-48
2023/08/02 05:17:49;;;;;;;0.00;0.00;;;;;;;15.33;100.00;99471.97;5039418;28;20029;-45
2023/08/02 05:20:15;;;;;;;0.00;0.00;;;;;;;15.29;100.00;99470.81;5033111;28;20038;-47
2023/08/02 05:22:40;;;;;;;0.00;0.00;;;;;;;15.34;100.00;99463.56;5031916;28;20030;-47
2023/08/02 05:25:07;;;;;;;0.00;0.00;;;;;;;15.33;100.00;99461.94;5031610;28;20029;-49
2023/08/02 05:27:32;;;;;;;0.00;0.00;;;;;;;15.33;100.00;99444.88;5031838;28;20029;-42
2023/08/02 05:29:57;;;;;;;0.00;0.00;;;;;;;15.35;100.00;99429.19;5043327;28;20188;-43
2023/08/02 05:32:23;;;;;;;0.00;0.00;;;;;;;15.33;100.00;99434.84;5052368;28;20025;-44
2023/08/02 05:34:48;;;;;;;0.00;0.00;;;;;;;15.36;100.00;99433.50;5048879;28;20380;-47
2023/08/02 05:37:13;;;;;;;0.00;0.00;;;;;;;15.39;100.00;99434.91;5032219;28;20033;-44
2023/08/02 05:39:39;;;;;;;0.00;0.00;;;;;;;15.23;100.00;99431.16;5052258;28;20573;-43
2023/08/02 05:42:04;;;;;;;0.00;0.00;;;;;;;15.24;100.00;99428.16;5051854;28;20232;-44
2023/08/02 05:44:30;;;;;;;0.00;0.00;;;;;;;15.26;100.00;99433.34;5050626;28;20437;-46
2023/08/02 05:46:55;;;;;;;0.00;0.00;;;;;;;15.24;100.00;99424.66;5034168;28;20039;-50
2023/08/02 05:49:20;;;;;;;0.00;0.00;;;;;;;15.20;100.00;99410.78;5032521;28;20060;-46
2023/08/02 05:51:46;;;;;;;0.00;0.00;;;;;;;15.33;100.00;99405.00;5048592;28;20045;-48
2023/08/02 05:54:11;;;;;;;0.00;0.00;;;;;;;15.24;100.00;99409.19;5051963;28;20060;-47
2023/08/02 05:56:36;;;;;;;0.00;0.00;;;;;;;15.31;100.00;99398.19;5052212;28;20057;-44
2023/08/02 05:59:02;;;;;;;0.00;0.00;;;;;;;15.19;100.00;99389.34;5050910;28;20448;-46
2023/08/02 06:01:27;;;;;;;0.00;0.00;;;;;;;15.21;100.00;99376.34;5037930;28;20395;-48
2023/08/02 06:03:52;;;;;;;0.00;0.00;;;;;;;15.24;100.00;99375.84;5033429;28;20427;-44
2023/08/02 06:06:18;;;;;;;0.00;0.00;;;;;;;15.17;100.00;99369.81;5031360;28;20037;-44
2023/08/02 06:08:45;;;;;;;0.00;0.00;;;;;;;15.28;100.00;99360.75;5047716;28;20035;-46
2023/08/02 06:11:12;;;;;;;0.00;0.00;;;;;;;15.31;100.00;99360.25;5040911;28;20484;-48
2023/08/02 06:13:37;;;;;;;0.00;0.00;;;;;;;15.25;100.00;99351.22;5031751;28;20029;-47
2023/08/02 06:16:03;;;;;;;0.00;0.00;;;;;;;15.28;100.00;99333.66;5031464;28;20032;-46
2023/08/02 06:18:28;;;;;;;0.00;0.00;;;;;;;15.28;100.00;99320.91;5044007;28;20033;-45
2023/08/02 06:20:53;;;;;;;0.00;0.00;;;;;;;15.26;100.00;99308.69;5051226;28;20029;-43
2023/08/02 06:23:19;;;;;;;0.00;0.00;;;;;;;15.27;100.00;99300.31;5051543;28;20043;-44
2023/08/02 06:25:44;;;;;;;0.00;0.00;;;;;;;15.27;100.00;99294.03;5045431;28;20118;-45
2023/08/02 06:28:09;;;;;;;0.00;0.00;;;;;;;15.22;100.00;99283.97;5040543;28;20036;-46
2023/08/02 06:30:35;;;;;;;0.00;0.00;;;;;;;15.24;100.00;99289.13;5050762;28;20119;-49
2023/08/02 06:33:00;;;;;;;0.00;0.00;;;;;;;15.23;100.00;99276.66;5050311;28;20082;-49
2023/08/02 06:35:25;;;;;;;0.00;0.00;;;;;;;15.22;100.00;99283.13;5050471;28;20029;-48
2023/08/02 06:37:51;;;;;;;0.00;0.00;;;;;;;15.25;100.00;99275.34;5042067;28;20448;-47
2023/08/02 06:40:16;;;;;;;0.00;0.00;;;;;;;15.28;100.00;99284.88;5030777;28;20136;-47
2023/08/02 06:42:42;;;;;;;0.00;0.00;;;;;;;15.28;100.00;99276.72;5028919;28;20480;-51
2023/08/02 06:45:08;;;;;;;0.00;0.00;;;;;;;15.32;100.00;99259.72;5030326;28;20044;-48
2023/08/02 06:47:33;;;;;;;0.00;0.00;;;;;;;15.23;100.00;99258.50;5030358;28;20025;-51
2023/08/02 06:49:58;;;;;;;0.00;0.00;;;;;;;15.25;100.00;99242.81;5038891;28;20048;-47
2023/08/02 06:52:24;;;;;;;0.00;0.00;;;;;;;15.29;100.00;99226.88;5036459;28;20476;-46
2023/08/02 06:54:53;;;;;;;0.00;0.00;;;;;;;15.34;100.00;99226.94;5033500;28;20056;-46
2023/08/02 06:57:22;;;;;;;0.00;0.00;;;;;;;15.28;100.00;99225.22;5040637;28;20025;-47
2023/08/02 06:59:49;;;;;;;0.00;0.00;;;;;;;15.27;100.00;99207.31;5041028;28;20045;-50
2023/08/02 07:02:15;;;;;;;0.00;0.00;;;;;;;15.28;100.00;99203.56;5038960;28;20089;-51
2023/08/02 07:04:40;;;;;;;0.00;0.00;;;;;;;15.35;100.00;99196.06;5040215;28;20060;-45
2023/08/02 07:07:05;;;;;;;0.00;0.00;;;;;;;15.39;100.00;99199.88;5039731;28;20369;-49
2023/08/02 07:09:32;;;;;;;0.00;0.00;;;;;;;15.46;100.00;99184.25;5038402;28;20017;-47
2023/08/02 07:11:58;;;;;;;0.00;0.00;;;;;;;15.51;100.00;99176.16;5043644;28;20044;-47
2023/08/02 07:14:23;;;;;;;0.00;0.00;;;;;;;15.56;100.00;99164.53;5035672;28;20049;-48
2023/08/02 07:16:48;;;;;;;0.00;0.00;;;;;;;15.51;100.00;99170.75;5037191;28;20555;-48
2023/08/02 07:19:14;;;;;;;0.00;0.00;;;;;;;15.48;100.00;99155.00;5037283;28;20317;-47
2023/08/02 07:21:39;;;;;;;0.00;0.00;;;;;;;15.50;100.00;99162.84;5040253;28;20027;-47
2023/08/02 07:24:05;;;;;;;0.00;0.00;;;;;;;15.61;100.00;99147.50;5038794;28;20034;-49
2023/08/02 07:26:30;;;;;;;0.00;0.00;;;;;;;15.65;100.00;99137.78;5038836;28;20140;-44
2023/08/02 07:28:55;;;;;;;0.00;0.00;;;;;;;15.70;100.00;99129.75;5038252;28;20052;-44
2023/08/02 07:31:21;;;;;;;0.00;0.00;;;;;;;15.67;100.00;99135.66;5041375;28;20029;-47
2023/08/02 07:33:47;;;;;;;0.00;0.00;;;;;;;15.65;100.00;99137.78;5039547;28;20025;-46
2023/08/02 07:36:13;;;;;;;0.00;0.00;;;;;;;15.55;100.00;99128.47;5039820;28;20472;-49
2023/08/02 07:38:39;;;;;;;0.00;0.00;;;;;;;15.70;100.00;99135.97;5037938;28;20029;-49
2023/08/02 07:41:04;;;;;;;0.00;0.00;;;;;;;15.67;100.00;99119.38;5039212;28;20029;-52
2023/08/02 07:43:30;;;;;;;0.00;0.00;;;;;;;15.72;100.00;99127.59;5040416;28;20017;-49
2023/08/02 07:45:55;;;;;;;0.00;0.00;;;;;;;15.66;100.00;99112.28;5040600;28;20079;-48
2023/08/02 07:48:21;;;;;;;0.00;0.00;;;;;;;15.62;100.00;99111.19;5037590;28;20514;-50
2023/08/02 07:50:46;;;;;;;0.00;0.00;;;;;;;15.61;100.00;99104.13;5034795;28;20029;-50
2023/08/02 07:53:12;;;;;;;0.00;0.00;;;;;;;15.60;100.00;99108.72;5037126;28;20032;-50
2023/08/02 07:55:37;;;;;;;0.00;0.00;;;;;;;15.63;100.00;99112.81;5039637;28;20108;-50
2023/08/02 07:58:03;;;;;;;0.00;0.00;;;;;;;15.65;100.00;99116.09;5043983;28;20411;-50
2023/08/02 08:00:28;;;;;;;0.00;0.00;;;;;;;15.64;100.00;99114.44;5039200;28;20062;-50
2023/08/02 08:02:53;;;;;;;0.00;0.00;;;;;;;15.78;100.00;99099.44;5035486;28;20044;-49
2023/08/02 08:05:19;;;;;;;0.00;0.00;;;;;;;15.70;100.00;99100.72;5037305;28;20061;-50
2023/08/02 08:07:44;;;;;;;0.00;0.00;;;;;;;15.67;100.00;99082.22;5038178;28;20033;-52
2023/08/02 08:10:09;;;;;;;0.00;0.00;;;;;;;15.73;100.00;99092.06;5039483;28;20475;-50
2023/08/02 08:12:38;;;;;;;0.00;0.00;;;;;;;15.83;100.00;99093.22;5039263;28;20036;-51
2023/08/02 08:15:05;;;;;;;0.00;0.00;;;;;;;15.90;100.00;99093.81;5030356;28;20597;-51
2023/08/02 08:17:30;;;;;;;0.00;0.00;;;;;;;16.02;100.00;99078.16;5028956;28;20116;-47
2023/08/02 08:19:56;;;;;;;0.00;0.00;;;;;;;16.18;100.00;99076.38;5028777;28;20498;-47
2023/08/02 08:22:28;;;;;;;0.00;0.00;;;;;;;16.31;100.00;99059.63;5032253;28;20083;-48
2023/08/02 08:24:53;;;;;;;0.00;0.00;;;;;;;16.42;100.00;99061.31;5042895;28;20041;-47
2023/08/02 08:27:19;;;;;;;0.00;0.00;;;;;;;16.59;100.00;99065.75;5039300;28;20491;-47
2023/08/02 08:29:44;;;;;;;0.00;0.00;;;;;;;16.59;100.00;99055.69;5048282;28;20051;-45
2023/08/02 08:32:10;;;;;;;0.00;0.00;;;;;;;16.83;100.00;99053.38;5050307;28;20021;-43
2023/08/02 08:34:35;;;;;;;0.00;0.00;;;;;;;16.96;100.00;99064.81;5040263;28;20029;-46
2023/08/02 08:37:00;;;;;;;0.00;0.00;;;;;;;17.02;100.00;99053.69;5030690;28;20036;-48
2023/08/02 08:39:26;;;;;;;0.00;0.00;;;;;;;17.07;100.00;99050.97;5036028;28;20450;-48
2023/08/02 08:41:51;;;;;;;0.00;0.00;;;;;;;17.09;100.00;99037.13;5050185;28;20033;-46
2023/08/02 08:44:16;;;;;;;0.00;0.00;;;;;;;17.19;100.00;99034.41;5049917;28;20151;-48
2023/08/02 08:46:42;;;;;;;0.00;0.00;;;;;;;17.22;100.00;99025.75;5050508;28;20029;-46
2023/08/02 08:49:08;;;;;;;0.00;0.00;;;;;;;17.20;100.00;99030.63;5050168;28;20030;-47
2023/08/02 08:51:34;;;;;;;0.00;0.00;;;;;;;17.22;100.00;99028.47;5050903;28;20033;-48
2023/08/02 08:54:05;;;;;;;0.00;0.00;;;;;;;17.23;100.00;99023.84;5048328;28;20060;-47
2023/08/02 08:56:33;;;;;;;0.00;0.00;;;;;;;17.31;100.00;99021.38;5049546;28;20521;-45
2023/08/02 08:59:01;;;;;;;0.00;0.00;;;;;;;17.40;100.00;99026.28;5048203;28;20536;-46
2023/08/02 09:01:27;;;;;;;0.00;0.00;;;;;;;17.44;100.00;99014.59;5048220;28;20033;-45
2023/08/02 09:03:52;;;;;;;0.00;0.00;;;;;;;17.55;100.00;99009.97;5048015;28;20025;-45
2023/08/02 09:06:17;;;;;;;0.00;0.00;;;;;;;17.51;100.00;99019.78;5048430;28;20631;-48
2023/08/02 09:08:47;;;;;;;0.00;0.00;;;;;;;17.58;100.00;99011.31;5039317;28;20029;-46
2023/08/02 09:11:12;;;;;;;0.00;0.00;;;;;;;17.63;100.00;99003.16;5046744;28;20028;-47
2023/08/02 09:13:38;;;;;;;0.00;0.00;;;;;;;17.77;100.00;98988.75;5047772;28;20032;-46
2023/08/02 09:16:03;;;;;;;0.00;0.00;;;;;;;18.05;100.00;98991.16;5049942;28;20028;-45
2023/08/02 09:18:42;;;;;;;0.00;0.00;;;;;;;18.19;100.00;98979.41;5048487;28;20074;-46
2023/08/02 09:21:09;;;;;;;0.00;0.00;;;;;;;18.27;100.00;98960.84;5041947;28;20037;-47
2023/08/02 09:23:34;;;;;;;0.00;0.00;;;;;;;18.24;100.00;98966.88;5033058;28;20144;-48
2023/08/02 09:26:29;;;;;;;0.00;0.00;;;;;;;18.23;100.00;98957.88;5048310;28;20108;-50
2023/08/02 09:29:04;;;;;;;0.00;0.00;;;;;;;18.09;100.00;98954.94;5049195;28;20059;-48
2023/08/02 09:31:31;;;;;;;0.00;0.00;;;;;;;18.12;100.00;98951.66;5048181;28;20036;-49
2023/08/02 09:33:57;;;;;;;0.00;0.00;;;;;;;18.07;100.00;98959.84;5049394;28;20456;-51
2023/08/02 09:36:22;;;;;;;0.00;0.00;;;;;;;18.29;100.00;98948.59;5049286;28;20029;-49
2023/08/02 09:39:18;;;;;;;0.00;0.00;;;;;;;18.31;100.00;98942.88;5029504;28;20469;-46
2023/08/02 09:41:44;;;;;;;0.00;0.00;;;;;;;18.33;100.00;98944.22;5033886;28;20053;-51
2023/08/02 09:44:18;;;;;;;0.00;0.00;;;;;;;18.39;100.00;98956.72;5030394;28;20030;-46
2023/08/02 09:46:44;;;;;;;0.00;0.00;;;;;;;18.10;100.00;98953.03;5045622;28;20040;-51
2023/08/02 09:49:20;;;;;;;0.00;0.00;;;;;;;18.07;100.00;98951.69;5052849;28;20077;-48
2023/08/02 09:51:46;;;;;;;0.00;0.00;;;;;;;18.49;100.00;98955.88;5036476;28;20083;-49
2023/08/02 09:54:14;;;;;;;0.00;0.00;;;;;;;19.12;100.00;98968.06;5033290;28;20029;-47
2023/08/02 09:56:41;;;;;;;0.00;0.00;;;;;;;19.46;100.00;98941.56;5032947;28;20144;-47
2023/08/02 09:59:07;;;;;;;0.00;0.00;;;;;;;19.44;100.00;98921.13;5032917;28;20053;-47
2023/08/02 10:01:34;;;;;;;0.00;0.00;;;;;;;19.70;100.00;98908.09;5034281;28;20146;-44
2023/08/02 10:04:06;;;;;;;0.00;0.00;;;;;;;19.71;100.00;98890.59;5033221;28;20063;-46
2023/08/02 10:06:34;;;;;;;0.00;0.00;;;;;;;19.85;100.00;98877.88;5038697;28;20315;-45
2023/08/02 10:09:07;;;;;;;0.00;0.00;;;;;;;20.08;100.00;98881.69;5044121;28;20380;-47
2023/08/02 10:11:37;;;;;;;0.00;0.00;;;;;;;20.52;100.00;98879.75;5035444;28;20046;-48
2023/08/02 10:14:03;;;;;;;0.00;0.00;;;;;;;20.85;100.00;98847.81;5032797;28;20029;-49
2023/08/02 10:16:29;;;;;;;0.00;0.00;;;;;;;20.85;100.00;98863.41;5031442;28;20030;-44
2023/08/02 10:18:54;;;;;;;0.00;0.00;;;;;;;21.03;100.00;98846.97;5033715;28;20034;-44
2023/08/02 10:21:21;;;;;;;0.00;0.00;;;;;;;21.29;100.00;98849.25;5030963;28;20345;-44
2023/08/02 10:23:47;;;;;;;0.00;0.00;;;;;;;20.99;100.00;98845.16;5031214;28;20041;-48
2023/08/02 10:26:12;;;;;;;0.00;0.00;;;;;;;20.61;100.00;98847.91;5042894;28;20035;-46
2023/08/02 10:28:38;;;;;;;0.00;0.00;;;;;;;20.46;100.00;98856.31;5048095;28;20031;-46
2023/08/02 10:31:07;;;;;;;0.00;0.00;;;;;;;20.52;100.00;98836.81;5033676;28;20136;-44
2023/08/02 10:33:32;;;;;;;0.00;0.00;;;;;;;21.12;100.00;98827.16;5033479;28;20040;-44
2023/08/02 10:36:08;;;;;;;0.00;0.00;;;;;;;21.18;100.00;98801.31;5036201;28;20030;-45
2023/08/02 10:38:39;;;;;;;0.00;0.00;;;;;;;22.08;100.00;98802.50;5044000;28;20037;-46
2023/08/02 10:41:07;;;;;;;0.00;0.00;;;;;;;22.16;100.00;98798.22;5038175;28;20048;-45
2023/08/02 10:43:33;;;;;;;0.00;0.00;;;;;;;22.36;100.00;98788.78;5042626;28;20091;-44
2023/08/02 10:46:17;;;;;;;0.00;0.00;;;;;;;22.34;100.00;98788.28;5031100;28;20033;-45
2023/08/02 10:48:43;;;;;;;0.30;0.00;;;;;;;22.47;100.00;98801.13;5041213;28;20033;-47
2023/08/02 10:51:26;;;;;;;0.00;0.00;;;;;;;22.43;100.00;98805.59;5039757;28;20029;-43
2023/08/02 10:54:14;;;;;;;0.00;0.00;;;;;;;22.16;100.00;98805.66;5050225;28;20033;-43
2023/08/02 10:56:51;;;;;;;0.00;0.00;;;;;;;21.68;100.00;98813.22;5024251;28;20067;-46
2023/08/02 10:59:23;;;;;;;0.00;0.00;;;;;;;20.95;100.00;98822.22;5052532;28;20059;-44
2023/08/02 11:02:00;;;;;;;0.00;0.00;;;;;;;20.65;100.00;98813.44;5052893;28;20032;-45
2023/08/02 11:04:27;;;;;;;;;;;;;;;20.68;100.00;98799.16;5051789;28;20060;-43
2023/08/02 11:06:52;;;;;;;0.00;0.00;;;;;;;21.16;100.00;98796.13;5049793;28;19913;-46
2023/08/02 11:09:18;;;;;;;0.00;0.00;;;;;;;21.67;100.00;98817.09;5044132;28;20044;-45
2023/08/02 11:11:43;;;;;;;0.00;0.00;;;;;;;21.86;100.00;98784.09;5041217;28;20029;-44
2023/08/02 11:14:09;;;;;;;0.00;0.00;;;;;;;22.06;100.00;98785.56;5043421;28;20157;-45
2023/08/02 11:16:43;;;;;;;0.00;0.00;;;;;;;22.44;100.00;98800.94;5036288;28;20121;-45
2023/08/02 11:19:10;;;;;;;0.00;0.00;;;;;;;22.29;100.00;98780.97;5032528;28;20033;-43
2023/08/02 11:21:36;;;;;;;0.00;0.00;;;;;;;22.11;100.00;98781.91;5033029;28;20025;-44
2023/08/02 11:24:01;;;;;;;0.00;0.00;;;;;;;22.36;100.00;98788.78;5031785;28;20029;-44